createdAt,value
2017-04-15T00:00:16.873Z,19.99
2017-04-15T00:01:27.158Z,19.89
2017-04-15T00:02:37.449Z,19.87
2017-04-15T00:03:47.742Z,19.87
2017-04-15T00:04:57.710Z,19.85
2017-04-15T00:06:08.001Z,19.84
2017-04-15T00:07:18.289Z,19.89
2017-04-15T00:08:28.583Z,19.89
2017-04-15T00:09:38.882Z,19.89
2017-04-15T00:10:49.111Z,19.9
2017-04-15T00:11:59.387Z,19.93
2017-04-15T00:13:09.369Z,19.9
2017-04-15T00:14:19.342Z,19.89
2017-04-15T00:15:29.328Z,19.89
2017-04-15T00:16:39.548Z,19.85
2017-04-15T00:17:49.834Z,19.93
2017-04-15T00:18:59.508Z,19.84
2017-04-15T00:20:09.797Z,19.9
2017-04-15T00:21:19.781Z,19.87
2017-04-15T00:22:30.310Z,19.84
2017-04-15T00:23:40.599Z,19.85
2017-04-15T00:24:50.894Z,19.89
2017-04-15T00:26:01.194Z,19.9
2017-04-15T00:27:11.473Z,19.92
2017-04-15T00:28:21.796Z,19.92
2017-04-15T00:29:31.762Z,19.85
2017-04-15T00:30:41.428Z,19.87
2017-04-15T00:31:51.703Z,19.89
2017-04-15T00:33:01.981Z,19.87
2017-04-15T00:34:12.559Z,19.85
2017-04-15T00:35:22.605Z,19.87
2017-04-15T00:36:32.882Z,19.87
2017-04-15T00:37:42.927Z,19.9
2017-04-15T00:38:53.217Z,19.84
2017-04-15T00:40:03.800Z,19.87
2017-04-15T00:41:14.077Z,19.87
2017-04-15T00:42:24.053Z,19.82
2017-04-15T00:43:34.028Z,19.87
2017-04-15T00:44:44.018Z,19.87
2017-04-15T00:45:54.499Z,19.9
2017-04-15T00:47:04.796Z,19.87
2017-04-15T00:48:15.082Z,19.84
2017-04-15T00:49:25.073Z,19.84
2017-04-15T00:50:35.367Z,19.89
2017-04-15T00:51:45.901Z,19.87
2017-04-15T00:52:55.874Z,19.85
2017-04-15T00:54:06.188Z,19.87
2017-04-15T00:55:16.166Z,19.85
2017-04-15T00:56:25.813Z,19.87
2017-04-15T00:57:36.029Z,19.89
2017-04-15T00:58:46.315Z,19.82
2017-04-15T00:59:56.602Z,19.92
2017-04-15T01:01:06.884Z,19.89
2017-04-15T01:02:17.163Z,19.85
2017-04-15T01:03:27.752Z,19.85
2017-04-15T01:04:37.729Z,19.81
2017-04-15T01:05:48.015Z,19.84
2017-04-15T01:06:58.309Z,19.89
2017-04-15T01:08:08.289Z,19.92
2017-04-15T01:09:18.829Z,19.87
2017-04-15T01:10:29.108Z,19.89
2017-04-15T01:11:38.761Z,19.92
2017-04-15T01:12:48.420Z,19.89
2017-04-15T01:13:58.705Z,19.9
2017-04-15T01:15:08.938Z,19.77
2017-04-15T01:16:19.222Z,19.81
2017-04-15T01:17:29.506Z,19.92
2017-04-15T01:18:39.189Z,19.84
2017-04-15T01:19:49.157Z,19.82
2017-04-15T01:20:59.431Z,19.84
2017-04-15T01:22:09.407Z,19.79
2017-04-15T01:23:19.398Z,19.84
2017-04-15T01:24:29.700Z,19.74
2017-04-15T01:25:39.978Z,19.82
2017-04-15T01:26:50.559Z,19.75
2017-04-15T01:28:00.526Z,19.81
2017-04-15T01:29:10.820Z,19.84
2017-04-15T01:30:20.789Z,19.87
2017-04-15T01:31:31.066Z,19.82
2017-04-15T01:32:41.349Z,19.89
2017-04-15T01:33:51.630Z,19.84
2017-04-15T01:35:01.597Z,19.81
2017-04-15T01:36:12.039Z,19.81
2017-04-15T01:37:22.431Z,19.84
2017-04-15T01:38:32.971Z,19.85
2017-04-15T01:39:43.260Z,19.85
2017-04-15T01:40:53.530Z,19.82
2017-04-15T01:42:03.814Z,19.82
2017-04-15T01:43:14.105Z,19.82
2017-04-15T01:44:24.329Z,19.81
2017-04-15T01:45:34.309Z,19.82
2017-04-15T01:46:44.584Z,19.82
2017-04-15T01:47:54.873Z,19.82
2017-04-15T01:49:05.154Z,19.75
2017-04-15T01:50:15.742Z,19.84
2017-04-15T01:51:26.020Z,19.84
2017-04-15T01:52:36.301Z,19.77
2017-04-15T01:53:46.599Z,19.81
2017-04-15T01:54:56.892Z,19.89
2017-04-15T01:56:07.426Z,19.87
2017-04-15T01:57:17.721Z,19.92
2017-04-15T01:58:27.690Z,19.81
2017-04-15T01:59:37.742Z,19.77
2017-04-15T02:00:48.026Z,19.77
2017-04-15T02:01:58.097Z,19.78
2017-04-15T02:03:08.384Z,19.82
2017-04-15T02:04:18.666Z,19.78
2017-04-15T02:05:28.633Z,19.74
2017-04-15T02:06:38.595Z,19.82
2017-04-15T02:07:49.135Z,19.79
2017-04-15T02:08:59.419Z,19.78
2017-04-15T02:10:09.405Z,19.82
2017-04-15T02:11:19.691Z,19.79
2017-04-15T02:12:29.966Z,19.77
2017-04-15T02:13:40.251Z,19.74
2017-04-15T02:14:50.522Z,19.77
2017-04-15T02:16:00.494Z,19.85
2017-04-15T02:17:10.776Z,19.79
2017-04-15T02:18:21.062Z,19.82
2017-04-15T02:19:31.588Z,19.71
2017-04-15T02:20:41.885Z,19.72
2017-04-15T02:21:51.851Z,19.77
2017-04-15T02:23:02.134Z,19.84
2017-04-15T02:24:12.776Z,19.79
2017-04-15T02:25:23.372Z,19.82
2017-04-15T02:26:33.769Z,19.75
2017-04-15T02:27:44.055Z,19.75
2017-04-15T02:28:54.031Z,19.75
2017-04-15T02:30:04.318Z,19.77
2017-04-15T02:31:14.537Z,19.78
2017-04-15T02:32:24.845Z,19.85
2017-04-15T02:33:35.127Z,19.84
2017-04-15T02:34:45.091Z,19.84
2017-04-15T02:35:55.060Z,19.75
2017-04-15T02:37:05.647Z,19.81
2017-04-15T02:38:15.613Z,19.82
2017-04-15T02:39:25.895Z,19.78
2017-04-15T02:40:36.171Z,19.85
2017-04-15T02:41:46.460Z,19.74
2017-04-15T02:42:56.677Z,19.77
2017-04-15T02:44:06.957Z,19.78
2017-04-15T02:45:17.236Z,19.78
2017-04-15T02:46:27.204Z,19.82
2017-04-15T02:47:37.487Z,19.82
2017-04-15T02:48:47.713Z,19.85
2017-04-15T02:49:57.990Z,19.81
2017-04-15T02:51:08.274Z,19.79
2017-04-15T02:52:18.241Z,19.9
2017-04-15T02:53:28.212Z,19.78
2017-04-15T02:54:38.441Z,19.77
2017-04-15T02:55:48.721Z,19.87
2017-04-15T02:56:59.030Z,19.81
2017-04-15T02:58:09.114Z,19.84
2017-04-15T02:59:18.772Z,19.78
2017-04-15T03:00:29.303Z,19.77
2017-04-15T03:01:39.593Z,19.84
2017-04-15T03:02:49.882Z,19.78
2017-04-15T03:04:00.151Z,19.82
2017-04-15T03:05:10.121Z,19.79
2017-04-15T03:06:20.698Z,19.81
2017-04-15T03:07:30.974Z,19.82
2017-04-15T03:08:41.250Z,19.75
2017-04-15T03:09:51.551Z,19.85
2017-04-15T03:11:01.827Z,19.84
2017-04-15T03:12:12.353Z,19.74
2017-04-15T03:13:21.716Z,19.77
2017-04-15T03:14:31.989Z,19.78
2017-04-15T03:15:41.964Z,19.82
2017-04-15T03:16:52.256Z,19.77
2017-04-15T03:18:02.471Z,19.72
2017-04-15T03:19:12.773Z,19.82
2017-04-15T03:20:22.743Z,19.77
2017-04-15T03:21:33.027Z,19.81
2017-04-15T03:22:43.310Z,19.81
2017-04-15T03:23:53.535Z,19.7
2017-04-15T03:25:03.514Z,19.72
2017-04-15T03:26:13.835Z,19.78
2017-04-15T03:27:24.125Z,19.81
2017-04-15T03:28:34.102Z,19.74
2017-04-15T03:29:44.698Z,19.74
2017-04-15T03:30:54.660Z,19.7
2017-04-15T03:32:04.326Z,19.72
2017-04-15T03:33:14.619Z,19.72
2017-04-15T03:34:24.907Z,19.74
2017-04-15T03:35:35.445Z,19.77
2017-04-15T03:36:45.724Z,19.85
2017-04-15T03:37:55.999Z,19.71
2017-04-15T03:39:06.292Z,19.71
2017-04-15T03:40:16.282Z,19.66
2017-04-15T03:41:26.819Z,19.7
2017-04-15T03:42:37.117Z,19.64
2017-04-15T03:43:47.394Z,19.7
2017-04-15T03:44:57.701Z,19.64
2017-04-15T03:46:07.978Z,19.72
2017-04-15T03:47:18.207Z,19.84
2017-04-15T03:48:28.493Z,19.7
2017-04-15T03:49:38.769Z,19.74
2017-04-15T03:50:49.059Z,19.7
2017-04-15T03:51:59.027Z,19.64
2017-04-15T03:53:09.559Z,19.7
2017-04-15T03:54:19.832Z,19.7
2017-04-15T03:55:30.115Z,19.71
2017-04-15T03:56:40.393Z,19.66
2017-04-15T03:57:50.357Z,19.67
2017-04-15T03:59:00.913Z,19.72
2017-04-15T04:00:10.257Z,19.7
2017-04-15T04:01:20.460Z,19.7
2017-04-15T04:02:30.763Z,19.7
2017-04-15T04:03:40.730Z,19.64
2017-04-15T04:04:51.259Z,19.67
2017-04-15T04:06:01.540Z,19.67
2017-04-15T04:07:11.817Z,19.66
2017-04-15T04:08:21.793Z,19.75
2017-04-15T04:09:32.064Z,19.72
2017-04-15T04:10:42.590Z,19.72
2017-04-15T04:11:52.872Z,19.72
2017-04-15T04:13:02.529Z,19.72
2017-04-15T04:14:12.823Z,19.66
2017-04-15T04:15:22.793Z,19.66
2017-04-15T04:16:33.053Z,19.64
2017-04-15T04:17:42.703Z,19.7
2017-04-15T04:18:53.006Z,19.64
2017-04-15T04:20:03.298Z,19.7
2017-04-15T04:21:13.582Z,19.7
2017-04-15T04:22:24.116Z,19.72
2017-04-15T04:23:34.417Z,19.7
2017-04-15T04:24:44.703Z,19.72
2017-04-15T04:25:54.982Z,19.7
2017-04-15T04:27:05.248Z,19.74
2017-04-15T04:28:15.479Z,19.77
2017-04-15T04:29:24.847Z,19.74
2017-04-15T04:30:35.142Z,19.7
2017-04-15T04:31:45.111Z,19.74
2017-04-15T04:32:55.386Z,19.74
2017-04-15T04:34:05.909Z,19.74
2017-04-15T04:35:16.197Z,19.77
2017-04-15T04:36:26.490Z,19.74
2017-04-15T04:37:36.768Z,19.75
2017-04-15T04:38:46.750Z,19.82
2017-04-15T04:39:57.277Z,19.77
2017-04-15T04:41:07.561Z,19.74
2017-04-15T04:42:17.838Z,19.74
2017-04-15T04:43:27.814Z,19.66
2017-04-15T04:44:37.792Z,19.74
2017-04-15T04:45:48.008Z,19.81
2017-04-15T04:46:57.982Z,19.7
2017-04-15T04:48:08.259Z,19.79
2017-04-15T04:49:18.236Z,19.67
2017-04-15T04:50:28.533Z,19.77
2017-04-15T04:51:39.063Z,19.66
2017-04-15T04:52:49.336Z,19.74
2017-04-15T04:53:58.679Z,19.75
2017-04-15T04:55:08.973Z,19.7
2017-04-15T04:56:18.934Z,19.67
2017-04-15T04:57:29.475Z,19.67
2017-04-15T04:58:39.760Z,19.7
2017-04-15T04:59:49.734Z,19.75
2017-04-15T05:01:00.009Z,19.81
2017-04-15T05:02:09.981Z,19.75
2017-04-15T05:03:20.525Z,19.84
2017-04-15T05:04:31.109Z,19.79
2017-04-15T05:05:41.846Z,19.84
2017-04-15T05:06:52.108Z,19.71
2017-04-15T05:08:02.391Z,19.79
2017-04-15T05:09:12.989Z,19.77
2017-04-15T05:10:23.302Z,19.82
2017-04-15T05:11:32.974Z,19.84
2017-04-15T05:12:43.262Z,19.81
2017-04-15T05:13:52.920Z,19.82
2017-04-15T05:15:03.450Z,19.79
2017-04-15T05:16:13.425Z,19.82
2017-04-15T05:17:23.701Z,19.81
2017-04-15T05:18:33.663Z,19.75
2017-04-15T05:19:43.633Z,19.81
2017-04-15T05:20:54.216Z,19.82
2017-04-15T05:22:04.491Z,19.81
2017-04-15T05:23:14.453Z,19.77
2017-04-15T05:24:24.118Z,19.78
2017-04-15T05:25:34.419Z,19.87
2017-04-15T05:26:44.981Z,19.78
2017-04-15T05:27:55.260Z,19.84
2017-04-15T05:29:05.556Z,19.78
2017-04-15T05:30:15.834Z,19.75
2017-04-15T05:31:25.497Z,19.79
2017-04-15T05:32:35.399Z,19.75
2017-04-15T05:33:45.691Z,19.79
2017-04-15T05:34:55.991Z,19.75
2017-04-15T05:36:06.281Z,19.75
2017-04-15T05:37:16.252Z,19.79
2017-04-15T05:38:26.482Z,19.79
2017-04-15T05:39:36.765Z,19.9
2017-04-15T05:40:47.042Z,19.81
2017-04-15T05:41:56.698Z,19.81
2017-04-15T05:43:06.967Z,19.81
2017-04-15T05:44:17.186Z,19.79
2017-04-15T05:45:27.485Z,19.89
2017-04-15T05:46:37.619Z,19.75
2017-04-15T05:47:47.912Z,19.79
2017-04-15T05:48:58.196Z,19.77
2017-04-15T05:50:08.460Z,19.87
2017-04-15T05:51:18.896Z,19.78
2017-04-15T05:52:29.186Z,19.75
2017-04-15T05:53:39.482Z,19.78
2017-04-15T05:54:49.772Z,19.74
2017-04-15T05:55:59.994Z,19.81
2017-04-15T05:57:09.670Z,19.78
2017-04-15T05:58:19.640Z,19.78
2017-04-15T05:59:29.631Z,19.78
2017-04-15T06:00:39.905Z,19.85
2017-04-15T06:01:50.436Z,19.79
2017-04-15T06:03:00.710Z,19.74
2017-04-15T06:04:10.689Z,19.77
2017-04-15T06:05:20.353Z,19.82
2017-04-15T06:06:30.317Z,19.77
2017-04-15T06:07:40.541Z,19.81
2017-04-15T06:08:50.519Z,19.78
2017-04-15T06:10:00.800Z,19.81
2017-04-15T06:11:11.089Z,19.87
2017-04-15T06:12:21.372Z,19.77
2017-04-15T06:13:31.598Z,19.79
2017-04-15T06:14:41.270Z,19.77
2017-04-15T06:15:51.562Z,19.82
2017-04-15T06:17:01.842Z,19.84
2017-04-15T06:18:12.118Z,19.82
2017-04-15T06:19:22.339Z,19.87
2017-04-15T06:20:32.628Z,19.87
2017-04-15T06:21:42.902Z,19.9
2017-04-15T06:22:52.553Z,19.92
2017-04-15T06:24:02.532Z,19.82
2017-04-15T06:25:13.119Z,19.89
2017-04-15T06:26:23.398Z,19.78
2017-04-15T06:27:33.368Z,19.85
2017-04-15T06:28:43.353Z,19.92
2017-04-15T06:29:53.636Z,19.85
2017-04-15T06:31:03.551Z,19.85
2017-04-15T06:32:13.521Z,19.89
2017-04-15T06:33:23.487Z,19.81
2017-04-15T06:34:33.788Z,19.87
2017-04-15T06:35:44.061Z,19.89
2017-04-15T06:36:54.602Z,19.84
2017-04-15T06:38:04.285Z,19.89
2017-04-15T06:39:14.339Z,19.87
2017-04-15T06:40:24.914Z,19.81
2017-04-15T06:41:34.929Z,19.9
2017-04-15T06:42:45.354Z,19.82
2017-04-15T06:43:55.334Z,19.93
2017-04-15T06:45:05.615Z,19.89
2017-04-15T06:46:15.901Z,19.85
2017-04-15T06:47:26.189Z,19.84
2017-04-15T06:48:36.768Z,19.92
2017-04-15T06:49:47.068Z,19.84
2017-04-15T06:50:57.037Z,19.84
2017-04-15T06:52:07.030Z,19.93
2017-04-15T06:53:17.099Z,19.87
2017-04-15T06:54:27.684Z,19.87
2017-04-15T06:55:37.678Z,19.92
2017-04-15T06:56:47.650Z,19.9
2017-04-15T06:57:58.177Z,19.89
2017-04-15T06:59:08.469Z,19.85
2017-04-15T07:00:19.007Z,19.82
2017-04-15T07:01:28.980Z,19.92
2017-04-15T07:02:39.527Z,19.92
2017-04-15T07:03:49.819Z,19.94
2017-04-15T07:05:00.096Z,19.92
2017-04-15T07:06:10.316Z,19.89
2017-04-15T07:07:20.300Z,19.92
2017-04-15T07:08:30.589Z,19.94
2017-04-15T07:09:40.870Z,19.87
2017-04-15T07:10:50.841Z,19.89
2017-04-15T07:12:01.068Z,19.92
2017-04-15T07:13:10.418Z,19.89
2017-04-15T07:14:20.712Z,19.87
2017-04-15T07:15:30.687Z,19.96
2017-04-15T07:16:40.982Z,19.85
2017-04-15T07:17:51.517Z,19.92
2017-04-15T07:19:01.793Z,19.85
2017-04-15T07:20:12.068Z,19.82
2017-04-15T07:21:22.347Z,19.85
2017-04-15T07:22:32.617Z,19.85
2017-04-15T07:23:43.218Z,19.9
2017-04-15T07:24:53.498Z,19.82
2017-04-15T07:26:03.784Z,19.85
2017-04-15T07:27:13.445Z,19.89
2017-04-15T07:28:23.423Z,19.89
2017-04-15T07:29:33.959Z,19.85
2017-04-15T07:30:44.266Z,19.9
2017-04-15T07:31:54.245Z,19.89
2017-04-15T07:33:04.411Z,19.94
2017-04-15T07:34:14.375Z,19.89
2017-04-15T07:35:24.959Z,19.85
2017-04-15T07:36:34.921Z,19.89
2017-04-15T07:37:44.904Z,19.9
2017-04-15T07:38:55.202Z,19.97
2017-04-15T07:40:05.166Z,19.89
2017-04-15T07:41:14.762Z,19.97
2017-04-15T07:42:25.039Z,19.96
2017-04-15T07:43:35.025Z,19.87
2017-04-15T07:44:45.312Z,19.96
2017-04-15T07:45:54.984Z,19.9
2017-04-15T07:47:05.221Z,19.9
2017-04-15T07:48:14.581Z,19.84
2017-04-15T07:49:24.879Z,19.84
2017-04-15T07:50:34.533Z,19.89
2017-04-15T07:51:44.813Z,19.96
2017-04-15T07:52:55.345Z,19.92
2017-04-15T07:54:05.649Z,19.96
2017-04-15T07:55:15.947Z,19.96
2017-04-15T07:56:26.077Z,19.9
2017-04-15T07:57:36.375Z,19.92
2017-04-15T07:58:46.661Z,19.9
2017-04-15T07:59:56.954Z,19.99
2017-04-15T08:01:07.235Z,19.87
2017-04-15T08:02:16.902Z,20
2017-04-15T08:03:27.177Z,19.84
2017-04-15T08:04:37.400Z,19.92
2017-04-15T08:05:47.783Z,19.92
2017-04-15T08:06:57.744Z,19.87
2017-04-15T08:08:08.027Z,19.92
2017-04-15T08:09:17.697Z,19.99
2017-04-15T08:10:28.283Z,19.9
2017-04-15T08:11:38.689Z,19.87
2017-04-15T08:12:48.969Z,19.94
2017-04-15T08:13:59.257Z,19.94
2017-04-15T08:15:09.738Z,19.99
2017-04-15T08:16:20.383Z,19.92
2017-04-15T08:17:30.792Z,19.89
2017-04-15T08:18:41.073Z,19.87
2017-04-15T08:19:51.404Z,19.89
2017-04-15T08:21:01.375Z,19.9
2017-04-15T08:22:11.919Z,19.87
2017-04-15T08:23:21.882Z,19.96
2017-04-15T08:24:32.165Z,19.97
2017-04-15T08:25:42.457Z,19.89
2017-04-15T08:26:52.421Z,19.9
2017-04-15T08:28:02.980Z,19.92
2017-04-15T08:29:13.366Z,19.92
2017-04-15T08:30:23.335Z,19.99
2017-04-15T08:31:33.614Z,19.9
2017-04-15T08:32:43.290Z,19.9
2017-04-15T08:33:53.837Z,19.89
2017-04-15T08:35:04.124Z,20
2017-04-15T08:36:14.092Z,19.93
2017-04-15T08:37:24.377Z,19.85
2017-04-15T08:38:34.665Z,19.89
2017-04-15T08:39:44.951Z,19.93
2017-04-15T08:40:55.247Z,19.96
2017-04-15T08:42:05.539Z,19.99
2017-04-15T08:43:15.827Z,19.96
2017-04-15T08:44:26.125Z,19.9
2017-04-15T08:45:36.670Z,19.89
2017-04-15T08:46:46.641Z,20
2017-04-15T08:47:56.618Z,20
2017-04-15T08:49:06.925Z,19.94
2017-04-15T08:50:16.902Z,19.93
2017-04-15T08:51:26.814Z,19.92
2017-04-15T08:52:36.862Z,19.97
2017-04-15T08:53:47.340Z,19.99
2017-04-15T08:54:57.356Z,19.84
2017-04-15T08:56:07.645Z,19.97
2017-04-15T08:57:18.199Z,19.84
2017-04-15T08:58:27.877Z,20.02
2017-04-15T08:59:38.169Z,19.92
2017-04-15T09:00:48.148Z,19.89
2017-04-15T09:01:58.449Z,19.94
2017-04-15T09:03:08.354Z,20
2017-04-15T09:04:18.639Z,19.85
2017-04-15T09:05:28.300Z,19.87
2017-04-15T09:06:37.970Z,19.89
2017-04-15T09:07:48.254Z,19.82
2017-04-15T09:08:58.789Z,19.96
2017-04-15T09:10:09.076Z,19.93
2017-04-15T09:11:19.059Z,19.92
2017-04-15T09:12:29.345Z,19.85
2017-04-15T09:13:39.647Z,19.85
2017-04-15T09:14:49.564Z,19.93
2017-04-15T09:15:59.535Z,19.93
2017-04-15T09:17:09.817Z,20
2017-04-15T09:18:19.806Z,19.97
2017-04-15T09:19:30.093Z,19.92
2017-04-15T09:20:40.681Z,20
2017-04-15T09:21:50.640Z,19.96
2017-04-15T09:23:00.612Z,19.9
2017-04-15T09:24:10.905Z,19.94
2017-04-15T09:25:20.880Z,19.99
2017-04-15T09:26:31.412Z,20
2017-04-15T09:27:41.387Z,20
2017-04-15T09:28:51.053Z,19.97
2017-04-15T09:30:01.353Z,19.97
2017-04-15T09:31:11.337Z,20.02
2017-04-15T09:32:21.912Z,19.96
2017-04-15T09:33:31.583Z,19.9
2017-04-15T09:34:41.679Z,19.97
2017-04-15T09:35:52.201Z,19.97
2017-04-15T09:37:02.487Z,19.97
2017-04-15T09:38:12.990Z,19.94
2017-04-15T09:39:23.275Z,19.94
2017-04-15T09:40:33.579Z,20.02
2017-04-15T09:41:43.858Z,19.96
2017-04-15T09:42:54.162Z,19.93
2017-04-15T09:44:04.382Z,19.93
2017-04-15T09:45:14.676Z,20
2017-04-15T09:46:24.647Z,19.99
2017-04-15T09:47:34.631Z,19.97
2017-04-15T09:48:44.621Z,19.97
2017-04-15T09:49:55.176Z,19.94
2017-04-15T09:51:05.506Z,19.85
2017-04-15T09:52:15.791Z,19.94
2017-04-15T09:53:25.770Z,19.97
2017-04-15T09:54:36.057Z,20
2017-04-15T09:55:46.596Z,19.99
2017-04-15T09:56:56.887Z,19.93
2017-04-15T09:58:07.166Z,20
2017-04-15T09:59:17.460Z,19.97
2017-04-15T10:00:27.789Z,19.97
2017-04-15T10:01:38.006Z,19.93
2017-04-15T10:02:48.303Z,19.97
2017-04-15T10:03:58.293Z,20
2017-04-15T10:05:08.285Z,20.03
2017-04-15T10:06:18.579Z,20
2017-04-15T10:07:29.166Z,20
2017-04-15T10:08:39.461Z,19.99
2017-04-15T10:09:49.751Z,19.96
2017-04-15T10:11:00.089Z,20.08
2017-04-15T10:12:10.107Z,20
2017-04-15T10:13:20.663Z,20
2017-04-15T10:14:31.244Z,20.02
2017-04-15T10:15:41.691Z,19.97
2017-04-15T10:16:51.684Z,20.04
2017-04-15T10:18:01.346Z,19.96
2017-04-15T10:19:11.277Z,20
2017-04-15T10:20:21.585Z,20.02
2017-04-15T10:21:31.868Z,19.99
2017-04-15T10:22:41.840Z,19.97
2017-04-15T10:23:52.124Z,19.94
2017-04-15T10:25:02.342Z,19.99
2017-04-15T10:26:12.629Z,19.99
2017-04-15T10:27:22.590Z,20.03
2017-04-15T10:28:32.574Z,19.97
2017-04-15T10:29:42.552Z,19.96
2017-04-15T10:30:53.094Z,20.07
2017-04-15T10:32:03.064Z,20
2017-04-15T10:33:13.378Z,20
2017-04-15T10:34:23.351Z,19.94
2017-04-15T10:35:33.650Z,20.02
2017-04-15T10:36:43.875Z,19.97
2017-04-15T10:37:54.177Z,20
2017-04-15T10:39:04.158Z,19.99
2017-04-15T10:40:14.441Z,20.04
2017-04-15T10:41:24.112Z,20.02
2017-04-15T10:42:34.654Z,19.96
2017-04-15T10:43:44.974Z,20.02
2017-04-15T10:44:55.267Z,20.02
2017-04-15T10:46:05.243Z,20
2017-04-15T10:47:14.908Z,19.96
2017-04-15T10:48:25.190Z,19.99
2017-04-15T10:49:35.477Z,19.97
2017-04-15T10:50:45.843Z,19.97
2017-04-15T10:51:56.122Z,19.99
2017-04-15T10:53:06.111Z,20.03
2017-04-15T10:54:16.775Z,20.04
2017-04-15T10:55:26.795Z,20
2017-04-15T10:56:36.780Z,19.93
2017-04-15T10:57:47.058Z,19.97
2017-04-15T10:58:57.148Z,20.08
2017-04-15T11:00:07.390Z,20.02
2017-04-15T11:01:17.692Z,19.97
2017-04-15T11:02:27.966Z,20.02
2017-04-15T11:03:37.957Z,20.03
2017-04-15T11:04:47.628Z,20.02
2017-04-15T11:05:58.173Z,20.1
2017-04-15T11:07:08.474Z,20.1
2017-04-15T11:08:18.773Z,19.97
2017-04-15T11:09:28.758Z,20.14
2017-04-15T11:10:39.060Z,20.08
2017-04-15T11:11:49.670Z,20
2017-04-15T11:12:59.963Z,20.03
2017-04-15T11:14:10.265Z,20.1
2017-04-15T11:15:20.568Z,20.02
2017-04-15T11:16:30.222Z,20.07
2017-04-15T11:17:40.137Z,20.03
2017-04-15T11:18:50.122Z,20.08
2017-04-15T11:20:00.413Z,19.94
2017-04-15T11:21:10.394Z,20.08
2017-04-15T11:22:20.103Z,19.94
2017-04-15T11:23:30.701Z,20.04
2017-04-15T11:24:40.990Z,19.96
2017-04-15T11:25:51.291Z,20.12
2017-04-15T11:27:01.571Z,20.03
2017-04-15T11:28:11.547Z,20.04
2017-04-15T11:29:22.075Z,20.14
2017-04-15T11:30:32.371Z,20.04
2017-04-15T11:31:42.358Z,20.03
2017-04-15T11:32:52.673Z,20
2017-04-15T11:34:02.970Z,20.02
2017-04-15T11:35:13.664Z,20.04
2017-04-15T11:36:24.158Z,20.08
2017-04-15T11:37:34.589Z,20.04
2017-04-15T11:38:44.885Z,19.99
2017-04-15T11:39:55.215Z,20.04
2017-04-15T11:41:05.846Z,20.03
2017-04-15T11:42:16.146Z,20.1
2017-04-15T11:43:26.426Z,20.08
2017-04-15T11:44:36.734Z,20.08
2017-04-15T11:45:47.041Z,20.04
2017-04-15T11:46:57.609Z,20.04
2017-04-15T11:48:07.911Z,20.04
2017-04-15T11:49:17.275Z,20.1
2017-04-15T11:50:27.577Z,20.12
2017-04-15T11:51:37.559Z,20.15
2017-04-15T11:52:48.116Z,20.07
2017-04-15T11:53:58.413Z,20.12
2017-04-15T11:55:08.415Z,20.12
2017-04-15T11:56:18.706Z,20.07
2017-04-15T11:57:28.392Z,20.15
2017-04-15T11:58:39.014Z,20.18
2017-04-15T11:59:49.339Z,20.12
2017-04-15T12:00:59.635Z,20.08
2017-04-15T12:02:09.606Z,20.12
2017-04-15T12:03:19.939Z,20.11
2017-04-15T12:04:30.564Z,20.07
2017-04-15T12:05:40.884Z,20.07
2017-04-15T12:06:51.170Z,20.11
2017-04-15T12:08:00.856Z,20.08
2017-04-15T12:09:10.574Z,20.07
2017-04-15T12:10:21.108Z,20.17
2017-04-15T12:11:31.412Z,20.08
2017-04-15T12:12:41.428Z,20.14
2017-04-15T12:13:51.959Z,20.12
2017-04-15T12:15:02.256Z,20.08
2017-04-15T12:16:12.876Z,20.08
2017-04-15T12:17:22.853Z,20.14
2017-04-15T12:18:33.157Z,20.12
2017-04-15T12:19:43.131Z,20.04
2017-04-15T12:20:53.420Z,20.11
2017-04-15T12:22:03.967Z,20.17
2017-04-15T12:23:13.935Z,20.14
2017-04-15T12:24:23.918Z,20.12
2017-04-15T12:25:34.231Z,20.08
2017-04-15T12:26:44.521Z,20.12
2017-04-15T12:27:54.782Z,20.15
2017-04-15T12:29:04.775Z,20.17
2017-04-15T12:30:14.753Z,20.12
2017-04-15T12:31:24.743Z,20.15
2017-04-15T12:32:34.735Z,20.14
2017-04-15T12:33:45.318Z,20.12
2017-04-15T12:34:55.293Z,20.11
2017-04-15T12:36:05.604Z,20.27
2017-04-15T12:37:15.897Z,20.14
2017-04-15T12:38:26.191Z,20.12
2017-04-15T12:39:36.762Z,20.19
2017-04-15T12:40:47.060Z,20.12
2017-04-15T12:41:57.406Z,20.11
2017-04-15T12:43:07.710Z,20.11
2017-04-15T12:44:18.001Z,20.15
2017-04-15T12:45:28.548Z,20.12
2017-04-15T12:46:38.520Z,20.19
2017-04-15T12:47:48.503Z,20.19
2017-04-15T12:48:58.500Z,20.19
2017-04-15T12:50:08.786Z,20.22
2017-04-15T12:51:19.333Z,20.24
2017-04-15T12:52:29.679Z,20.19
2017-04-15T12:53:39.984Z,20.19
2017-04-15T12:54:50.842Z,20.21
2017-04-15T12:56:01.136Z,20.26
2017-04-15T12:57:11.366Z,20.21
2017-04-15T12:58:21.663Z,20.22
2017-04-15T12:59:31.971Z,20.19
2017-04-15T13:00:41.321Z,20.24
2017-04-15T13:01:51.780Z,20.22
2017-04-15T13:03:02.017Z,20.21
2017-04-15T13:04:12.321Z,20.24
2017-04-15T13:05:22.314Z,20.26
2017-04-15T13:06:32.628Z,20.26
2017-04-15T13:07:42.920Z,20.21
2017-04-15T13:08:53.257Z,20.17
2017-04-15T13:10:03.565Z,20.1
2017-04-15T13:11:13.861Z,20.19
2017-04-15T13:12:23.848Z,20.22
2017-04-15T13:13:34.133Z,20.14
2017-04-15T13:14:44.668Z,20.12
2017-04-15T13:15:54.660Z,20.12
2017-04-15T13:17:04.943Z,20.15
2017-04-15T13:18:15.251Z,20.11
2017-04-15T13:19:25.539Z,20.1
2017-04-15T13:20:36.088Z,20.08
2017-04-15T13:21:46.374Z,20.08
2017-04-15T13:22:56.912Z,20.15
2017-04-15T13:24:07.211Z,20.11
2017-04-15T13:25:17.204Z,20.07
2017-04-15T13:26:27.444Z,20.11
2017-04-15T13:27:37.737Z,20.14
2017-04-15T13:28:48.062Z,20.11
2017-04-15T13:29:58.358Z,20.07
2017-04-15T13:31:08.677Z,20.12
2017-04-15T13:32:19.472Z,20.11
2017-04-15T13:33:29.463Z,20.08
2017-04-15T13:34:39.460Z,20.08
2017-04-15T13:35:49.768Z,20.14
2017-04-15T13:37:00.271Z,20.15
2017-04-15T13:38:10.875Z,20.11
2017-04-15T13:39:21.203Z,20.11
2017-04-15T13:40:31.012Z,20.04
2017-04-15T13:41:41.008Z,20.03
2017-04-15T13:42:51.364Z,20.03
2017-04-15T13:44:01.366Z,20.03
2017-04-15T13:45:11.383Z,19.97
2017-04-15T13:46:21.353Z,20
2017-04-15T13:47:31.371Z,19.96
2017-04-15T13:48:41.702Z,20
2017-04-15T13:49:51.936Z,19.96
2017-04-15T13:51:02.237Z,19.99
2017-04-15T13:52:12.238Z,20.03
2017-04-15T13:53:22.247Z,19.99
2017-04-15T13:54:32.555Z,20
2017-04-15T13:55:42.851Z,19.96
2017-04-15T13:56:53.159Z,19.94
2017-04-15T13:58:03.496Z,19.97
2017-04-15T13:59:13.476Z,20.02
2017-04-15T14:00:23.477Z,19.9
2017-04-15T14:01:34.039Z,20
2017-04-15T14:02:44.340Z,19.97
2017-04-15T14:03:54.656Z,20.02
2017-04-15T14:05:04.965Z,20.08
2017-04-15T14:06:15.268Z,19.97
2017-04-15T14:07:25.526Z,20
2017-04-15T14:08:35.539Z,19.92
2017-04-15T14:09:45.846Z,19.94
2017-04-15T14:10:55.407Z,19.93
2017-04-15T14:12:05.716Z,19.94
2017-04-15T14:13:15.891Z,20.02
2017-04-15T14:14:25.925Z,19.93
2017-04-15T14:15:36.228Z,19.97
2017-04-15T14:16:46.543Z,19.97
2017-04-15T14:17:56.523Z,20.02
2017-04-15T14:19:07.155Z,19.96
2017-04-15T14:20:17.459Z,19.96
2017-04-15T14:21:27.798Z,19.96
2017-04-15T14:22:37.801Z,19.97
2017-04-15T14:23:48.240Z,19.99
2017-04-15T14:24:58.809Z,19.97
2017-04-15T14:26:08.799Z,19.99
2017-04-15T14:27:18.785Z,19.94
2017-04-15T14:28:28.440Z,19.96
2017-04-15T14:29:38.741Z,19.92
2017-04-15T14:30:48.982Z,19.99
2017-04-15T14:31:58.988Z,19.96
2017-04-15T14:33:08.661Z,20.07
2017-04-15T14:34:18.982Z,20.03
2017-04-15T14:35:28.662Z,19.99
2017-04-15T14:36:38.613Z,19.99
2017-04-15T14:37:48.921Z,19.97
2017-04-15T14:38:59.240Z,19.96
2017-04-15T14:40:09.257Z,19.97
2017-04-15T14:41:19.615Z,20.02
2017-04-15T14:42:30.232Z,20
2017-04-15T14:43:40.544Z,19.97
2017-04-15T14:44:50.556Z,19.96
2017-04-15T14:46:00.558Z,19.96
2017-04-15T14:47:10.709Z,19.99
2017-04-15T14:48:20.941Z,20
2017-04-15T14:49:31.387Z,20.02
2017-04-15T14:50:41.389Z,20.02
2017-04-15T14:51:51.681Z,19.94
2017-04-15T14:53:01.678Z,20.02
2017-04-15T14:54:12.291Z,19.99
2017-04-15T14:55:22.276Z,19.97
2017-04-15T14:56:32.252Z,19.97
2017-04-15T14:57:42.251Z,19.97
2017-04-15T14:58:52.562Z,19.97
2017-04-15T15:00:03.149Z,19.99
2017-04-15T15:01:13.134Z,20.02
2017-04-15T15:02:23.132Z,20.03
2017-04-15T15:03:33.431Z,20.1
2017-04-15T15:04:43.406Z,20.04
2017-04-15T15:05:53.046Z,20.04
2017-04-15T15:07:03.068Z,20.07
2017-04-15T15:08:12.775Z,20
2017-04-15T15:09:23.072Z,20.08